| time (UTC) | temp C | wind direction | speed KPH | gust KPH | rain 1hr cm | rain 24hr cm | rain mn cm | humidity % | barometer mb |
| 20260508121535 | 21 | 50 | 1.6 | 4.8 | 0.00 | 0.46 | 0.08 | 58 | 1013.2 |
| 20260508120026 | 20 | 0 | 0.0 | 8.0 | 0.00 | 0.46 | 0.08 | 64 | 1013.3 |
| 20260508114530 | 20 | 145 | 1.6 | 6.4 | 0.00 | 0.46 | 0.08 | 65 | 1013.4 |
| 20260508113028 | 18 | 300 | 3.2 | 8.0 | 0.00 | 0.46 | 0.08 | 70 | 1013.8 |
| 20260508111533 | 17 | 308 | 3.2 | 11.3 | 0.00 | 0.46 | 0.08 | 76 | 1014.1 |
| 20260508110044 | 16 | 283 | 6.4 | 11.3 | 0.00 | 0.46 | 0.08 | 79 | 1014.4 |
| 20260508104527 | 16 | 273 | 6.4 | 11.3 | 0.00 | 0.46 | 0.08 | 83 | 1014.6 |
| 20260508103028 | 15 | 255 | 6.4 | 12.9 | 0.03 | 0.46 | 0.08 | 84 | 1014.7 |
| 20260508101530 | 15 | 256 | 6.4 | 12.9 | 0.08 | 0.46 | 0.08 | 86 | 1014.8 |
| 20260508100030 | 15 | 300 | 6.4 | 11.3 | 0.08 | 0.46 | 0.08 | 85 | 1014.6 |
| 20260508094529 | 15 | 0 | 0.0 | 3.2 | 0.08 | 0.46 | 0.08 | 86 | 1014.2 |
| 20260508093029 | 15 | 311 | 4.8 | 11.3 | 0.05 | 0.43 | 0.05 | 85 | 1014.2 |
| 20260508091529 | 15 | 305 | 4.8 | 9.7 | 0.00 | 0.36 | 0.00 | 86 | 1014.9 |
| 20260508090029 | 14 | 0 | 0.0 | 1.6 | 0.00 | 0.36 | 0.00 | 86 | 1014.5 |
| 20260508084528 | 14 | 6 | 1.6 | 4.8 | 0.00 | 0.36 | 0.00 | 87 | 1014.0 |
| 20260508083030 | 14 | 108 | 0.0 | 6.4 | 0.00 | 0.36 | 0.00 | 87 | 1013.9 |
| 20260508081528 | 14 | 0 | 0.0 | 6.4 | 0.00 | 0.36 | 0.00 | 87 | 1014.0 |
| 20260508080028 | 15 | 0 | 0.0 | 1.6 | 0.00 | 0.36 | 0.00 | 86 | 1013.5 |
| 20260508074539 | 14 | 0 | 0.0 | 1.6 | 0.00 | 0.36 | 0.00 | 87 | 1013.5 |
| 20260508073030 | 14 | 104 | 0.0 | 3.2 | 0.00 | 0.36 | 0.00 | 86 | 1013.4 |
| 20260508071535 | 15 | 0 | 0.0 | 0.0 | 0.00 | 0.36 | 0.00 | 84 | 1013.2 |
| 20260508070029 | 14 | 0 | 0.0 | 0.0 | 0.00 | 0.36 | 0.00 | 86 | 1013.2 |
| 20260508064534 | 13 | 0 | 0.0 | 0.0 | 0.00 | 0.36 | 0.00 | 88 | 1013.0 |
| 20260508063030 | -17 | 0.0 | 0.0 | 0.00 | 0.36 | 0.00 | 1013.0 | ||
| 20260508061528 | -17 | 0.0 | 0.0 | 0.00 | 0.36 | 0.00 | 1012.8 | ||
| 20260508060032 | -17 | 0.0 | 0.0 | 0.00 | 0.36 | 0.00 | 1012.5 | ||
| 20260508054529 | -17 | 0.0 | 0.0 | 0.00 | 0.36 | 0.00 | 1012.2 | ||
| 20260508053044 | -17 | 0.0 | 0.0 | 0.00 | 0.36 | 0.00 | 1012.2 | ||
| 20260508051529 | -17 | 0.0 | 0.0 | 0.00 | 0.36 | 0.00 | 1012.2 | ||
| 20260508050030 | -17 | 0.0 | 0.0 | 0.00 | 0.36 | 0.00 | 1011.9 | ||
| 20260508044530 | -17 | 0.0 | 0.0 | 0.00 | 0.36 | 0.00 | 1011.9 | ||
| 20260508043027 | -17 | 0.0 | 0.0 | 0.00 | 0.36 | 0.00 | 1011.8 | ||
| 20260508041552 | -17 | 0.0 | 0.0 | 0.00 | 0.36 | 0.00 | 1012.0 | ||
| 20260508040028 | -17 | 0.0 | 0.0 | 0.00 | 0.36 | 0.00 | 1012.0 | ||
| 20260508034533 | -17 | 0.0 | 0.0 | 0.00 | 0.36 | 0.00 | 1011.5 | ||
| 20260508033030 | -17 | 0.0 | 0.0 | 0.00 | 0.36 | 0.00 | 1011.7 | ||
| 20260508031535 | -17 | 0.0 | 0.0 | 0.00 | 0.36 | 0.00 | 1011.7 | ||
| 20260508030034 | -17 | 0.0 | 0.0 | 0.00 | 0.36 | 0.00 | 1012.0 | ||
| 20260508024531 | -17 | 0.0 | 0.0 | 0.00 | 0.36 | 0.00 | 1012.1 | ||
| 20260508023033 | -17 | 0.0 | 0.0 | 0.00 | 0.36 | 0.00 | 1012.1 | ||
| 20260508021530 | -17 | 0.0 | 0.0 | 0.00 | 0.36 | 0.00 | 1012.3 | ||
| 20260508020039 | -17 | 0.0 | 0.0 | 0.00 | 0.36 | 0.00 | 1012.3 | ||
| 20260508014529 | -17 | 0.0 | 0.0 | 0.00 | 0.36 | 0.00 | 1012.4 | ||
| 20260508013029 | -17 | 0.0 | 0.0 | 0.00 | 0.36 | 0.00 | 1012.5 | ||
| 20260508011529 | -17 | 0.0 | 0.0 | 0.00 | 0.36 | 0.00 | 1012.6 | ||
| 20260508010028 | -17 | 0.0 | 0.0 | 0.00 | 0.36 | 0.00 | 1012.9 | ||
| 20260508004533 | -17 | 0.0 | 0.0 | 0.00 | 0.36 | 0.00 | 1013.1 | ||
| 20260508003035 | -17 | 0.0 | 0.0 | 0.00 | 0.36 | 0.00 | 1013.5 | ||
| 20260508001528 | -17 | 0.0 | 0.0 | 0.00 | 0.36 | 0.00 | 1013.5 | ||
| 20260508000032 | -17 | 0.0 | 0.0 | 0.00 | 0.36 | 0.00 | 1013.6 | ||
| 20260507234527 | -17 | 0.0 | 0.0 | 0.00 | 0.36 | 0.00 | 1013.7 | ||
| 20260507233050 | -17 | 0.0 | 0.0 | 0.00 | 0.36 | 0.00 | 1013.7 | ||
| 20260507231535 | -17 | 0.0 | 0.0 | 0.00 | 0.36 | 0.00 | 1013.8 | ||
| 20260507230028 | -17 | 0.0 | 0.0 | 0.00 | 0.36 | 0.00 | 1013.9 | ||
| 20260507224531 | -17 | 0.0 | 0.0 | 0.00 | 0.36 | 0.00 | 1013.8 | ||
| 20260507223029 | -17 | 0.0 | 0.0 | 0.00 | 0.36 | 0.00 | 1014.0 | ||
| 20260507221534 | 14 | 4.8 | 8.0 | 0.00 | 0.36 | 0.00 | 90 | 1013.8 | |
| 20260507220031 | 13 | 274 | 1.6 | 4.8 | 0.00 | 0.36 | 0.00 | 90 | 1013.5 |
| 20260507214530 | 14 | 0 | 1.6 | 1.6 | 0.00 | 0.36 | 0.36 | 89 | 1013.5 |
| 20260507213033 | 14 | 322 | 1.6 | 3.2 | 0.00 | 0.36 | 0.36 | 88 | 1013.6 |
| 20260507211530 | 15 | 0 | 0.0 | 1.6 | 0.00 | 0.36 | 0.36 | 87 | 1013.5 |
| 20260507210030 | 15 | 0 | 0.0 | 3.2 | 0.00 | 0.36 | 0.36 | 86 | 1013.5 |
| 20260507204530 | 15 | 127 | 1.6 | 6.4 | 0.00 | 0.36 | 0.36 | 86 | 1013.5 |
| 20260507203032 | 15 | 105 | 3.2 | 8.0 | 0.00 | 0.36 | 0.36 | 85 | 1013.3 |
| 20260507201529 | 15 | 105 | 4.8 | 11.3 | 0.00 | 0.36 | 0.36 | 85 | 1013.3 |
| 20260507200033 | 15 | 143 | 4.8 | 11.3 | 0.00 | 0.36 | 0.36 | 87 | 1013.3 |
| 20260507194554 | 15 | 118 | 6.4 | 9.7 | 0.00 | 0.36 | 0.36 | 87 | 1012.9 |
| 20260507193030 | 15 | 133 | 4.8 | 9.7 | 0.00 | 0.36 | 0.36 | 87 | 1012.6 |
| 20260507191533 | 15 | 154 | 3.2 | 8.0 | 0.00 | 0.36 | 0.36 | 87 | 1012.4 |
| 20260507190029 | 15 | 147 | 1.6 | 6.4 | 0.00 | 0.36 | 0.36 | 86 | 1012.2 |
| 20260507184535 | 16 | 110 | 4.8 | 8.0 | 0.00 | 0.36 | 0.36 | 85 | 1012.0 |
| 20260507183037 | 16 | 108 | 6.4 | 11.3 | 0.10 | 0.36 | 0.36 | 84 | 1011.8 |
| 20260507181529 | 16 | 115 | 3.2 | 8.0 | 0.23 | 0.36 | 0.36 | 84 | 1011.5 |
| 20260507180034 | 15 | 129 | 1.6 | 8.0 | 0.23 | 0.36 | 0.36 | 84 | 1011.6 |
| 20260507174530 | 15 | 119 | 3.2 | 6.4 | 0.23 | 0.36 | 0.36 | 86 | 1011.8 |
| 20260507173038 | 16 | 128 | 1.6 | 6.4 | 0.10 | 0.25 | 0.25 | 86 | 1011.8 |
| 20260507171541 | 16 | 103 | 1.6 | 11.3 | 0.05 | 0.13 | 0.13 | 84 | 1011.5 |
| 20260507170028 | 17 | 108 | 4.8 | 9.7 | 0.10 | 0.13 | 0.13 | 84 | 1011.3 |
| 20260507164533 | 17 | 0 | 0.0 | 9.7 | 0.13 | 0.13 | 0.13 | 82 | 1011.2 |
| 20260507163029 | 18 | 0 | 1.6 | 6.4 | 0.13 | 0.13 | 0.13 | 80 | 1011.0 |
| 20260507161530 | 17 | 73 | 3.2 | 9.7 | 0.08 | 0.08 | 0.08 | 82 | 1010.8 |
| 20260507160033 | 17 | 262 | 6.4 | 19.3 | 0.00 | 0.00 | 0.00 | 79 | 1010.7 |
| 20260507154531 | 17 | 288 | 11.3 | 19.3 | 0.00 | 0.00 | 0.00 | 78 | 1010.7 |
| 20260507153029 | 18 | 271 | 11.3 | 19.3 | 0.00 | 0.00 | 0.00 | 77 | 1010.6 |
| 20260507151530 | 20 | 0 | 0.0 | 6.4 | 0.00 | 0.00 | 0.00 | 76 | 1010.7 |
| 20260507150027 | 20 | 118 | 3.2 | 9.7 | 0.00 | 0.00 | 0.00 | 75 | 1010.7 |
| 20260507144533 | 19 | 112 | 0.0 | 6.4 | 0.00 | 0.00 | 0.00 | 75 | 1010.8 |
| 20260507143027 | 19 | 75 | 3.2 | 11.3 | 0.00 | 0.00 | 0.00 | 75 | 1010.6 |
| 20260507141527 | 19 | 161 | 4.8 | 14.5 | 0.00 | 0.00 | 0.00 | 76 | 1010.4 |
| 20260507140028 | 19 | 127 | 9.7 | 19.3 | 0.00 | 0.00 | 0.00 | 72 | 1010.4 |
| 20260507134529 | 18 | 140 | 16.1 | 24.1 | 0.00 | 0.00 | 0.00 | 73 | 1010.4 |
| 20260507133030 | 19 | 121 | 14.5 | 20.9 | 0.00 | 0.00 | 0.00 | 71 | 1010.6 |
| 20260507131533 | 20 | 101 | 11.3 | 19.3 | 0.00 | 0.00 | 0.00 | 68 | 1010.6 |
| 20260507130028 | 21 | 114 | 14.5 | 24.1 | 0.00 | 0.00 | 0.00 | 64 | 1010.8 |
| 20260507124529 | 21 | 86 | 14.5 | 25.7 | 0.00 | 0.00 | 0.00 | 63 | 1010.8 |
| 20260507123038 | 21 | 60 | 12.9 | 19.3 | 0.00 | 0.00 | 0.00 | 63 | 1011.0 |